createdAt,value
2018-03-02T00:00:40.502Z,977.60
2018-03-02T00:01:40.489Z,977.49
2018-03-02T00:02:40.495Z,977.57
2018-03-02T00:03:40.475Z,977.48
2018-03-02T00:04:40.467Z,977.51
2018-03-02T00:05:40.463Z,977.51
2018-03-02T00:06:40.453Z,977.48
2018-03-02T00:07:40.444Z,977.56
2018-03-02T00:08:40.440Z,977.52
2018-03-02T00:09:40.431Z,977.46
2018-03-02T00:10:40.427Z,977.43
2018-03-02T00:11:40.418Z,977.43
2018-03-02T00:12:40.411Z,977.44
2018-03-02T00:13:40.403Z,977.40
2018-03-02T00:14:40.398Z,977.42
2018-03-02T00:15:40.390Z,977.40
2018-03-02T00:16:40.395Z,977.43
2018-03-02T00:17:40.374Z,977.43
2018-03-02T00:18:40.369Z,977.48
2018-03-02T00:19:40.362Z,977.44
2018-03-02T00:20:40.355Z,977.40
2018-03-02T00:21:40.350Z,977.34
2018-03-02T00:22:40.343Z,977.31
2018-03-02T00:23:40.333Z,977.23
2018-03-02T00:24:40.328Z,977.18
2018-03-02T00:25:40.320Z,977.21
2018-03-02T00:26:40.313Z,977.19
2018-03-02T00:27:40.307Z,977.14
2018-03-02T00:28:40.301Z,977.09
2018-03-02T00:29:40.293Z,977.16
2018-03-02T00:30:40.286Z,977.20
2018-03-02T00:31:40.279Z,977.20
2018-03-02T00:32:40.272Z,977.21
2018-03-02T00:33:40.265Z,977.18
2018-03-02T00:34:40.259Z,977.14
2018-03-02T00:35:40.251Z,977.15
2018-03-02T00:36:40.248Z,977.13
2018-03-02T00:37:40.238Z,977.14
2018-03-02T00:38:40.230Z,977.20
2018-03-02T00:39:40.242Z,977.19
2018-03-02T00:40:40.219Z,977.15
2018-03-02T00:41:40.210Z,977.22
2018-03-02T00:42:40.203Z,977.15
2018-03-02T00:43:40.189Z,977.18
2018-03-02T00:44:40.187Z,977.22
2018-03-02T00:45:40.241Z,977.21
2018-03-02T00:46:40.175Z,977.18
2018-03-02T00:47:40.167Z,977.20
2018-03-02T00:48:40.162Z,977.17
2018-03-02T00:49:40.153Z,977.14
2018-03-02T00:50:40.148Z,977.13
2018-03-02T00:51:40.142Z,977.15
2018-03-02T00:52:40.134Z,977.11
2018-03-02T00:53:40.127Z,977.10
2018-03-02T00:54:40.119Z,977.04
2018-03-02T00:55:40.115Z,977.00
2018-03-02T00:56:40.108Z,977.05
2018-03-02T00:57:40.099Z,977.00
2018-03-02T00:58:40.094Z,976.96
2018-03-02T00:59:40.086Z,976.97
2018-03-02T01:00:40.078Z,977.02
2018-03-02T01:01:40.078Z,976.94
2018-03-02T01:02:40.065Z,976.93
2018-03-02T01:03:40.057Z,976.94
2018-03-02T01:04:40.052Z,976.98
2018-03-02T01:05:40.051Z,976.98
2018-03-02T01:06:40.064Z,976.94
2018-03-02T01:07:40.035Z,976.96
2018-03-02T01:08:40.025Z,976.90
2018-03-02T01:09:40.017Z,976.94
2018-03-02T01:10:40.012Z,976.94
2018-03-02T01:11:40.047Z,976.88
2018-03-02T01:12:39.997Z,976.86
2018-03-02T01:13:39.989Z,976.85
2018-03-02T01:14:39.989Z,976.82
2018-03-02T01:15:39.978Z,976.86
2018-03-02T01:16:39.970Z,976.76
2018-03-02T01:17:39.962Z,976.77
2018-03-02T01:18:39.973Z,976.71
2018-03-02T01:19:39.949Z,976.75
2018-03-02T01:20:39.943Z,976.69
2018-03-02T01:21:39.937Z,976.69
2018-03-02T01:22:39.928Z,976.77
2018-03-02T01:23:39.923Z,976.70
2018-03-02T01:24:39.914Z,976.72
2018-03-02T01:25:39.907Z,976.74
2018-03-02T01:26:39.901Z,976.71
2018-03-02T01:27:39.895Z,976.67
2018-03-02T01:28:39.886Z,976.76
2018-03-02T01:29:39.881Z,976.65
2018-03-02T01:30:39.875Z,976.67
2018-03-02T01:31:39.869Z,976.66
2018-03-02T01:32:39.859Z,976.69
2018-03-02T01:33:39.876Z,976.69
2018-03-02T01:34:39.871Z,976.69
2018-03-02T01:35:39.841Z,976.73
2018-03-02T01:36:39.831Z,976.71
2018-03-02T01:37:39.836Z,976.68
2018-03-02T01:38:39.820Z,976.71
2018-03-02T01:39:39.813Z,976.73
2018-03-02T01:40:39.808Z,976.73
2018-03-02T01:41:39.803Z,976.68
2018-03-02T01:42:39.793Z,976.67
2018-03-02T01:43:39.786Z,976.65
2018-03-02T01:44:39.781Z,976.64
2018-03-02T01:45:39.773Z,976.56
2018-03-02T01:46:39.766Z,976.54
2018-03-02T01:47:39.757Z,976.58
2018-03-02T01:48:39.752Z,976.48
2018-03-02T01:49:39.748Z,976.50
2018-03-02T01:50:39.737Z,976.48
2018-03-02T01:51:39.727Z,976.46
2018-03-02T01:52:39.729Z,976.50
2018-03-02T01:53:39.722Z,976.47
2018-03-02T01:54:39.712Z,976.44
2018-03-02T01:55:39.703Z,976.48
2018-03-02T01:56:39.699Z,976.50
2018-03-02T01:57:39.691Z,976.44
2018-03-02T01:58:39.678Z,976.48
2018-03-02T01:59:39.676Z,976.51
2018-03-02T02:00:39.686Z,976.54
2018-03-02T02:01:39.663Z,976.47
2018-03-02T02:02:39.657Z,976.54
2018-03-02T02:03:39.651Z,976.55
2018-03-02T02:04:39.654Z,976.53
2018-03-02T02:05:39.638Z,976.53
2018-03-02T02:06:39.625Z,976.48
2018-03-02T02:07:39.624Z,976.45
2018-03-02T02:08:39.616Z,976.39
2018-03-02T02:09:39.610Z,976.40
2018-03-02T02:10:39.603Z,976.37
2018-03-02T02:11:39.596Z,976.33
2018-03-02T02:12:39.589Z,976.32
2018-03-02T02:13:39.582Z,976.28
2018-03-02T02:14:39.576Z,976.26
2018-03-02T02:15:39.571Z,976.26
2018-03-02T02:16:39.567Z,976.28
2018-03-02T02:17:39.554Z,976.30
2018-03-02T02:18:39.550Z,976.31
2018-03-02T02:19:39.562Z,976.35
2018-03-02T02:20:39.541Z,976.37
2018-03-02T02:21:39.530Z,976.44
2018-03-02T02:22:39.527Z,976.45
2018-03-02T02:23:39.533Z,976.36
2018-03-02T02:24:39.508Z,976.35
2018-03-02T02:25:39.499Z,976.34
2018-03-02T02:26:39.496Z,976.28
2018-03-02T02:27:39.488Z,976.32
2018-03-02T02:28:39.480Z,976.31
2018-03-02T02:29:39.482Z,976.30
2018-03-02T02:30:39.466Z,976.29
2018-03-02T02:31:39.467Z,976.24
2018-03-02T02:32:39.451Z,976.20
2018-03-02T02:33:39.448Z,976.23
2018-03-02T02:34:39.440Z,976.24
2018-03-02T02:35:39.436Z,976.31
2018-03-02T02:36:39.429Z,976.27
2018-03-02T02:37:39.419Z,976.31
2018-03-02T02:38:39.417Z,976.33
2018-03-02T02:39:39.408Z,976.38
2018-03-02T02:40:39.401Z,976.27
2018-03-02T02:41:39.391Z,976.34
2018-03-02T02:42:39.388Z,976.29
2018-03-02T02:43:39.380Z,976.23
2018-03-02T02:44:39.375Z,976.24
2018-03-02T02:45:39.387Z,976.22
2018-03-02T02:46:39.359Z,976.17
2018-03-02T02:47:39.352Z,976.19
2018-03-02T02:48:39.348Z,976.22
2018-03-02T02:49:39.340Z,976.21
2018-03-02T02:50:39.333Z,976.15
2018-03-02T02:51:39.323Z,976.21
2018-03-02T02:52:39.325Z,976.16
2018-03-02T02:53:39.312Z,976.20
2018-03-02T02:54:39.306Z,976.19
2018-03-02T02:55:39.301Z,976.14
2018-03-02T02:56:39.292Z,976.15
2018-03-02T02:57:39.287Z,976.15
2018-03-02T02:58:39.279Z,976.12
2018-03-02T02:59:39.268Z,976.13
2018-03-02T03:00:39.267Z,976.07
2018-03-02T03:01:39.258Z,976.13
2018-03-02T03:02:39.254Z,976.11
2018-03-02T03:03:39.247Z,976.20
2018-03-02T03:04:39.240Z,976.23
2018-03-02T03:05:39.231Z,976.24
2018-03-02T03:06:39.225Z,976.24
2018-03-02T03:07:39.222Z,976.19
2018-03-02T03:08:39.211Z,976.17
2018-03-02T03:09:39.235Z,976.12
2018-03-02T03:10:39.231Z,976.04
2018-03-02T03:11:39.216Z,976.01
2018-03-02T03:12:39.212Z,976.02
2018-03-02T03:13:39.196Z,976.04
2018-03-02T03:14:39.196Z,976.01
2018-03-02T03:15:39.163Z,975.93
2018-03-02T03:16:39.157Z,975.96
2018-03-02T03:17:39.150Z,975.97
2018-03-02T03:18:39.144Z,975.92
2018-03-02T03:19:39.139Z,975.93
2018-03-02T03:20:39.131Z,975.93
2018-03-02T03:21:39.123Z,975.91
2018-03-02T03:22:39.115Z,975.89
2018-03-02T03:23:39.110Z,975.84
2018-03-02T03:24:39.104Z,975.84
2018-03-02T03:25:39.094Z,975.82
2018-03-02T03:26:39.091Z,975.80
2018-03-02T03:27:39.087Z,975.85
2018-03-02T03:28:39.077Z,975.87
2018-03-02T03:29:39.068Z,975.85
2018-03-02T03:30:39.074Z,975.86
2018-03-02T03:31:39.060Z,975.82
2018-03-02T03:32:39.050Z,975.84
2018-03-02T03:33:39.044Z,975.84
2018-03-02T03:34:39.034Z,975.84
2018-03-02T03:35:39.029Z,975.87
2018-03-02T03:36:39.024Z,975.89
2018-03-02T03:37:39.014Z,975.82
2018-03-02T03:38:39.008Z,975.85
2018-03-02T03:39:39.001Z,975.84
2018-03-02T03:40:38.995Z,975.81
2018-03-02T03:41:38.989Z,975.74
2018-03-02T03:42:38.979Z,975.69
2018-03-02T03:43:39.001Z,975.67
2018-03-02T03:44:38.968Z,975.63
2018-03-02T03:45:38.959Z,975.60
2018-03-02T03:46:38.952Z,975.53
2018-03-02T03:47:38.948Z,975.47
2018-03-02T03:48:38.942Z,975.43
2018-03-02T03:49:38.932Z,975.49
2018-03-02T03:50:38.926Z,975.47
2018-03-02T03:51:38.919Z,975.46
2018-03-02T03:52:38.914Z,975.45
2018-03-02T03:53:38.905Z,975.37
2018-03-02T03:54:38.899Z,975.42
2018-03-02T03:55:38.893Z,975.36
2018-03-02T03:56:38.887Z,975.39
2018-03-02T03:57:38.879Z,975.44
2018-03-02T03:58:38.875Z,975.37
2018-03-02T03:59:38.861Z,975.43
2018-03-02T04:00:38.864Z,975.39
2018-03-02T04:01:38.873Z,975.39
2018-03-02T04:02:38.845Z,975.36
2018-03-02T04:03:38.839Z,975.35
2018-03-02T04:04:38.831Z,975.36
2018-03-02T04:05:38.826Z,975.40
2018-03-02T04:06:38.818Z,975.40
2018-03-02T04:07:38.812Z,975.34
2018-03-02T04:08:38.806Z,975.36
2018-03-02T04:09:38.797Z,975.31
2018-03-02T04:10:38.793Z,975.23
2018-03-02T04:11:38.787Z,975.23
2018-03-02T04:12:38.773Z,975.19
2018-03-02T04:13:38.771Z,975.12
2018-03-02T04:14:38.766Z,975.18
2018-03-02T04:15:38.756Z,975.15
2018-03-02T04:16:38.755Z,975.11
2018-03-02T04:17:38.744Z,975.18
2018-03-02T04:18:38.739Z,975.25
2018-03-02T04:19:38.732Z,975.28
2018-03-02T04:20:38.742Z,975.25
2018-03-02T04:21:38.718Z,975.28
2018-03-02T04:22:38.712Z,975.36
2018-03-02T04:23:38.708Z,975.30
2018-03-02T04:24:38.699Z,975.32
2018-03-02T04:25:38.692Z,975.28
2018-03-02T04:26:38.686Z,975.27
2018-03-02T04:27:38.679Z,975.22
2018-03-02T04:28:38.673Z,975.29
2018-03-02T04:29:38.666Z,975.23
2018-03-02T04:30:38.658Z,975.24
2018-03-02T04:31:38.653Z,975.19
2018-03-02T04:32:38.645Z,975.19
2018-03-02T04:33:38.639Z,975.19
2018-03-02T04:34:38.636Z,975.18
2018-03-02T04:35:38.625Z,975.17
2018-03-02T04:36:38.622Z,975.13
2018-03-02T04:37:38.611Z,975.15
2018-03-02T04:38:38.605Z,975.19
2018-03-02T04:39:38.601Z,975.17
2018-03-02T04:40:38.593Z,975.13
2018-03-02T04:41:38.593Z,975.12
2018-03-02T04:42:38.579Z,975.07
2018-03-02T04:43:38.581Z,975.03
2018-03-02T04:44:38.567Z,974.98
2018-03-02T04:45:38.566Z,974.93
2018-03-02T04:46:38.553Z,974.91
2018-03-02T04:47:38.548Z,974.89
2018-03-02T04:48:38.541Z,974.87
2018-03-02T04:49:38.534Z,974.93
2018-03-02T04:50:38.527Z,974.86
2018-03-02T04:51:38.520Z,974.85
2018-03-02T04:52:38.516Z,974.85
2018-03-02T04:53:38.508Z,974.85
2018-03-02T04:54:38.498Z,974.93
2018-03-02T04:55:38.492Z,974.83
2018-03-02T04:56:38.487Z,974.86
2018-03-02T04:57:38.480Z,974.78
2018-03-02T04:58:38.473Z,974.77
2018-03-02T04:59:38.464Z,974.67
2018-03-02T05:00:38.457Z,974.70
2018-03-02T05:01:38.447Z,974.65
2018-03-02T05:02:38.449Z,974.67
2018-03-02T05:03:38.477Z,974.64
2018-03-02T05:04:38.428Z,974.65
2018-03-02T05:05:38.418Z,974.59
2018-03-02T05:06:38.411Z,974.57
2018-03-02T05:07:38.406Z,974.57
2018-03-02T05:08:38.396Z,974.52
2018-03-02T05:09:38.386Z,974.50
2018-03-02T05:10:38.378Z,974.56
2018-03-02T05:11:38.371Z,974.54
2018-03-02T05:12:38.364Z,974.51
2018-03-02T05:13:38.355Z,974.53
2018-03-02T05:14:38.345Z,974.49
2018-03-02T05:15:38.340Z,974.47
2018-03-02T05:16:38.338Z,974.47
2018-03-02T05:17:38.324Z,974.47
2018-03-02T05:18:38.316Z,974.43
2018-03-02T05:19:38.309Z,974.46
2018-03-02T05:20:38.299Z,974.40
2018-03-02T05:21:38.312Z,974.38
2018-03-02T05:22:38.284Z,974.34
2018-03-02T05:23:38.275Z,974.32
2018-03-02T05:24:38.267Z,974.25
2018-03-02T05:25:38.259Z,974.28
2018-03-02T05:26:38.252Z,974.26
2018-03-02T05:27:38.243Z,974.26
2018-03-02T05:28:38.236Z,974.26
2018-03-02T05:29:38.227Z,974.27
2018-03-02T05:30:38.229Z,974.30
2018-03-02T05:31:38.216Z,974.30
2018-03-02T05:32:38.204Z,974.31
2018-03-02T05:33:38.195Z,974.32
2018-03-02T05:34:38.188Z,974.29
2018-03-02T05:35:38.178Z,974.29
2018-03-02T05:36:38.172Z,974.27
2018-03-02T05:37:38.162Z,974.30
2018-03-02T05:38:38.155Z,974.28
2018-03-02T05:39:38.147Z,974.24
2018-03-02T05:40:38.140Z,974.27
2018-03-02T05:41:38.132Z,974.24
2018-03-02T05:42:38.122Z,974.23
2018-03-02T05:43:38.114Z,974.13
2018-03-02T05:44:38.108Z,974.21
2018-03-02T05:45:38.098Z,974.18
2018-03-02T05:46:38.091Z,974.16
2018-03-02T05:47:38.083Z,974.19
2018-03-02T05:48:38.083Z,974.17
2018-03-02T05:49:38.067Z,974.14
2018-03-02T05:50:38.060Z,974.14
2018-03-02T05:51:38.051Z,974.13
2018-03-02T05:52:38.043Z,974.13
2018-03-02T05:53:38.035Z,974.13
2018-03-02T05:54:38.028Z,974.16
2018-03-02T05:55:38.021Z,974.16
2018-03-02T05:56:38.010Z,974.16
2018-03-02T05:57:38.004Z,974.18
2018-03-02T05:58:37.996Z,974.21
2018-03-02T05:59:37.989Z,974.22
2018-03-02T06:00:37.981Z,974.18
2018-03-02T06:01:37.972Z,974.19
2018-03-02T06:02:37.965Z,974.19
2018-03-02T06:03:37.958Z,974.17
2018-03-02T06:04:37.948Z,974.13
2018-03-02T06:05:37.940Z,974.19
2018-03-02T06:06:37.934Z,974.19
2018-03-02T06:07:37.925Z,974.17
2018-03-02T06:08:37.916Z,974.15
2018-03-02T06:09:37.909Z,974.12
2018-03-02T06:10:37.900Z,974.13
2018-03-02T06:11:37.895Z,974.14
2018-03-02T06:12:37.884Z,974.10
2018-03-02T06:13:37.875Z,974.16
2018-03-02T06:14:37.867Z,974.08
2018-03-02T06:15:37.861Z,974.12
2018-03-02T06:16:37.854Z,974.15
2018-03-02T06:17:37.847Z,974.13
2018-03-02T06:18:37.838Z,974.08
2018-03-02T06:19:37.827Z,974.10
2018-03-02T06:20:37.819Z,974.05
2018-03-02T06:21:37.817Z,974.10
2018-03-02T06:22:37.802Z,974.10
2018-03-02T06:23:37.795Z,974.15
2018-03-02T06:24:37.787Z,974.15
2018-03-02T06:25:37.778Z,974.14
2018-03-02T06:26:37.771Z,974.17
2018-03-02T06:27:37.762Z,974.12
2018-03-02T06:28:37.753Z,974.13
2018-03-02T06:29:37.774Z,974.07
2018-03-02T06:30:37.738Z,974.00
2018-03-02T06:31:37.730Z,974.00
2018-03-02T06:32:37.725Z,973.96
2018-03-02T06:33:37.713Z,973.98
2018-03-02T06:34:37.705Z,973.92
2018-03-02T06:35:37.697Z,973.89
2018-03-02T06:36:37.690Z,973.92
2018-03-02T06:37:37.679Z,973.96
2018-03-02T06:38:37.673Z,973.96
2018-03-02T06:39:37.664Z,973.89
2018-03-02T06:40:37.656Z,973.92
2018-03-02T06:41:37.682Z,973.89
2018-03-02T06:42:37.664Z,973.92
2018-03-02T06:43:37.631Z,973.90
2018-03-02T06:44:37.623Z,973.90
2018-03-02T06:45:37.616Z,973.84
2018-03-02T06:46:37.627Z,973.83
2018-03-02T06:47:37.599Z,973.77
2018-03-02T06:48:37.590Z,973.77
2018-03-02T06:49:37.583Z,973.76
2018-03-02T06:50:37.573Z,973.77
2018-03-02T06:51:37.565Z,973.79
2018-03-02T06:52:37.561Z,973.81
2018-03-02T06:53:37.558Z,973.77
2018-03-02T06:54:37.541Z,973.75
2018-03-02T06:55:37.534Z,973.75
2018-03-02T06:56:37.528Z,973.75
2018-03-02T06:57:37.517Z,973.70
2018-03-02T06:58:37.520Z,973.76
2018-03-02T06:59:37.500Z,973.71
2018-03-02T07:00:37.492Z,973.75
2018-03-02T07:01:37.483Z,973.72
2018-03-02T07:02:37.475Z,973.71
2018-03-02T07:03:37.473Z,973.78
2018-03-02T07:04:37.460Z,973.69
2018-03-02T07:05:37.452Z,973.68
2018-03-02T07:06:37.443Z,973.62
2018-03-02T07:07:37.435Z,973.59
2018-03-02T07:08:37.426Z,973.62
2018-03-02T07:09:37.420Z,973.62
2018-03-02T07:10:37.409Z,973.60
2018-03-02T07:11:37.402Z,973.59
2018-03-02T07:12:37.395Z,973.62
2018-03-02T07:13:37.385Z,973.61
2018-03-02T07:14:37.385Z,973.61
2018-03-02T07:15:37.375Z,973.67
2018-03-02T07:16:37.364Z,973.65
2018-03-02T07:17:37.352Z,973.65
2018-03-02T07:18:37.346Z,973.74
2018-03-02T07:19:37.335Z,973.78
2018-03-02T07:20:37.328Z,973.75
2018-03-02T07:21:37.320Z,973.78
2018-03-02T07:22:37.312Z,973.76
2018-03-02T07:23:37.307Z,973.75
2018-03-02T07:24:37.296Z,973.72
2018-03-02T07:25:37.288Z,973.72
2018-03-02T07:26:37.281Z,973.66
2018-03-02T07:27:37.270Z,973.64
2018-03-02T07:28:37.262Z,973.64
2018-03-02T07:29:37.254Z,973.69
2018-03-02T07:30:37.245Z,973.69
2018-03-02T07:31:37.240Z,973.75
2018-03-02T07:32:37.229Z,973.69
2018-03-02T07:33:37.223Z,973.73
2018-03-02T07:34:37.213Z,973.68
2018-03-02T07:35:37.204Z,973.70
2018-03-02T07:36:37.199Z,973.63
2018-03-02T07:37:37.189Z,973.63
2018-03-02T07:38:37.180Z,973.57
2018-03-02T07:39:37.172Z,973.58
2018-03-02T07:40:37.164Z,973.56
2018-03-02T07:41:37.155Z,973.56
2018-03-02T07:42:37.148Z,973.58
2018-03-02T07:43:37.140Z,973.61
2018-03-02T07:44:37.132Z,973.64
2018-03-02T07:45:37.122Z,973.60
2018-03-02T07:46:37.115Z,973.65
2018-03-02T07:47:37.108Z,973.60
2018-03-02T07:48:37.100Z,973.59
2018-03-02T07:49:37.091Z,973.67
2018-03-02T07:50:37.084Z,973.69
2018-03-02T07:51:37.075Z,973.66
2018-03-02T07:52:37.067Z,973.64
2018-03-02T07:53:37.057Z,973.66
2018-03-02T07:54:37.050Z,973.64
2018-03-02T07:55:37.046Z,973.71
2018-03-02T07:56:37.036Z,973.64
2018-03-02T07:57:37.025Z,973.67
2018-03-02T07:58:37.016Z,973.64
2018-03-02T07:59:37.007Z,973.61
2018-03-02T08:00:37.008Z,973.66
2018-03-02T08:01:36.993Z,973.67
2018-03-02T08:02:36.984Z,973.71
2018-03-02T08:03:36.977Z,973.74
2018-03-02T08:04:36.976Z,973.68
2018-03-02T08:05:36.959Z,973.69
2018-03-02T08:06:36.951Z,973.80
2018-03-02T08:07:36.944Z,973.68
2018-03-02T08:08:36.937Z,973.64
2018-03-02T08:09:36.927Z,973.61
2018-03-02T08:10:36.919Z,973.63
2018-03-02T08:11:36.912Z,973.63
2018-03-02T08:12:36.904Z,973.67
2018-03-02T08:13:36.896Z,973.67
2018-03-02T08:14:36.888Z,973.68
2018-03-02T08:15:36.880Z,973.71
2018-03-02T08:16:36.871Z,973.59
2018-03-02T08:17:36.861Z,973.60
2018-03-02T08:18:36.855Z,973.56
2018-03-02T08:19:36.847Z,973.52
2018-03-02T08:20:36.837Z,973.54
2018-03-02T08:21:36.829Z,973.50
2018-03-02T08:22:36.820Z,973.50
2018-03-02T08:23:36.812Z,973.50
2018-03-02T08:24:36.804Z,973.47
2018-03-02T08:25:36.800Z,973.45
2018-03-02T08:26:36.790Z,973.47
2018-03-02T08:27:36.781Z,973.42
2018-03-02T08:28:36.771Z,973.42
2018-03-02T08:29:36.762Z,973.40
2018-03-02T08:30:36.754Z,973.42
2018-03-02T08:31:36.750Z,973.38
2018-03-02T08:32:36.739Z,973.40
2018-03-02T08:33:36.731Z,973.37
2018-03-02T08:34:36.720Z,973.31
2018-03-02T08:35:36.714Z,973.34
2018-03-02T08:36:36.706Z,973.31
2018-03-02T08:37:36.697Z,973.24
2018-03-02T08:38:36.690Z,973.39
2018-03-02T08:39:36.692Z,973.27
2018-03-02T08:40:36.673Z,973.20
2018-03-02T08:41:36.664Z,973.21
2018-03-02T08:42:36.656Z,973.19
2018-03-02T08:43:36.648Z,973.18
2018-03-02T08:44:36.639Z,973.19
2018-03-02T08:45:36.631Z,973.17
2018-03-02T08:46:36.628Z,973.19
2018-03-02T08:47:36.616Z,973.22
2018-03-02T08:48:36.609Z,973.21
2018-03-02T08:49:36.599Z,973.18
2018-03-02T08:50:36.592Z,973.19
2018-03-02T08:51:36.583Z,973.18
2018-03-02T08:52:36.576Z,973.13
2018-03-02T08:53:36.566Z,973.14
2018-03-02T08:54:36.558Z,973.21
2018-03-02T08:55:36.550Z,973.13
2018-03-02T08:56:36.546Z,973.14
2018-03-02T08:57:36.537Z,973.14
2018-03-02T08:58:36.528Z,973.13
2018-03-02T08:59:36.521Z,973.15
2018-03-02T09:00:36.511Z,973.11
2018-03-02T09:01:36.502Z,973.11
2018-03-02T09:02:36.494Z,973.21
2018-03-02T09:03:36.485Z,973.05
2018-03-02T09:04:36.482Z,973.09
2018-03-02T09:05:36.518Z,973.12
2018-03-02T09:06:36.464Z,973.11
2018-03-02T09:07:36.452Z,973.10
2018-03-02T09:08:36.449Z,973.14
2018-03-02T09:09:36.437Z,973.15
2018-03-02T09:10:36.429Z,973.15
2018-03-02T09:11:36.420Z,973.14
2018-03-02T09:12:36.413Z,973.17
2018-03-02T09:13:36.404Z,973.12
2018-03-02T09:14:36.401Z,973.10
2018-03-02T09:15:36.388Z,973.09
2018-03-02T09:16:36.380Z,973.10
2018-03-02T09:17:36.372Z,973.06
2018-03-02T09:18:36.363Z,973.02
2018-03-02T09:19:36.359Z,973.09
2018-03-02T09:20:36.347Z,973.03
2018-03-02T09:21:36.340Z,972.99
2018-03-02T09:22:36.332Z,972.98
2018-03-02T09:23:36.324Z,973.04
2018-03-02T09:24:36.319Z,972.96
2018-03-02T09:25:36.307Z,972.97
2018-03-02T09:26:36.300Z,973.05
2018-03-02T09:27:36.293Z,973.01
2018-03-02T09:28:36.281Z,973.04
2018-03-02T09:29:36.275Z,973.01
2018-03-02T09:30:36.266Z,973.04
2018-03-02T09:31:36.259Z,973.00
2018-03-02T09:32:36.251Z,973.02
2018-03-02T09:33:36.242Z,973.01
2018-03-02T09:34:36.232Z,973.03
2018-03-02T09:35:36.226Z,972.98
2018-03-02T09:36:36.219Z,973.00
2018-03-02T09:37:36.211Z,972.96
2018-03-02T09:38:36.202Z,972.94
2018-03-02T09:39:36.194Z,972.93
2018-03-02T09:40:36.186Z,972.92
2018-03-02T09:41:36.180Z,972.97
2018-03-02T09:42:36.168Z,972.88
2018-03-02T09:43:36.168Z,972.88
2018-03-02T09:44:36.152Z,972.89
2018-03-02T09:45:36.145Z,972.90
2018-03-02T09:46:36.137Z,972.89
2018-03-02T09:47:36.132Z,972.86
2018-03-02T09:48:36.121Z,972.92
2018-03-02T09:49:36.111Z,972.84
2018-03-02T09:50:36.106Z,972.92
2018-03-02T09:51:36.101Z,972.90
2018-03-02T09:52:36.089Z,972.95
2018-03-02T09:53:36.081Z,972.97
2018-03-02T09:54:36.070Z,972.96
2018-03-02T09:55:36.065Z,972.95
2018-03-02T09:56:36.058Z,972.94
2018-03-02T09:57:36.048Z,972.93
2018-03-02T09:58:36.039Z,972.92
2018-03-02T09:59:36.034Z,972.95
2018-03-02T10:00:36.025Z,972.90
2018-03-02T10:01:36.018Z,972.93
2018-03-02T10:02:36.007Z,972.94
2018-03-02T10:03:36.000Z,972.90
2018-03-02T10:04:35.991Z,972.92
2018-03-02T10:05:35.983Z,972.89
2018-03-02T10:06:35.974Z,972.86
2018-03-02T10:07:35.970Z,972.87
2018-03-02T10:08:35.961Z,972.91
2018-03-02T10:09:35.950Z,972.87
2018-03-02T10:10:35.943Z,972.93
2018-03-02T10:11:35.964Z,972.87
2018-03-02T10:12:35.927Z,972.88
2018-03-02T10:13:35.918Z,972.87
2018-03-02T10:14:35.911Z,972.90
2018-03-02T10:15:35.906Z,972.82
2018-03-02T10:16:35.894Z,972.85
2018-03-02T10:17:35.887Z,972.81
2018-03-02T10:18:35.878Z,972.83
2018-03-02T10:19:35.870Z,972.91
2018-03-02T10:20:35.863Z,972.88
2018-03-02T10:21:35.855Z,972.88
2018-03-02T10:22:35.846Z,972.93
2018-03-02T10:23:35.838Z,972.99
2018-03-02T10:24:35.831Z,972.89
2018-03-02T10:25:35.820Z,972.95
2018-03-02T10:26:35.813Z,972.97
2018-03-02T10:27:35.805Z,972.96
2018-03-02T10:28:35.798Z,972.92
2018-03-02T10:29:35.787Z,972.91
2018-03-02T10:30:35.780Z,972.92
2018-03-02T10:31:35.775Z,972.93
2018-03-02T10:32:35.765Z,972.92
2018-03-02T10:33:35.757Z,972.89
2018-03-02T10:34:35.749Z,972.86
2018-03-02T10:35:35.742Z,972.87
2018-03-02T10:36:35.733Z,972.87
2018-03-02T10:37:35.723Z,972.86
2018-03-02T10:38:35.717Z,972.83
2018-03-02T10:39:35.709Z,972.83
2018-03-02T10:40:35.700Z,972.87
2018-03-02T10:41:35.695Z,972.89
2018-03-02T10:42:35.685Z,972.88
2018-03-02T10:43:35.676Z,972.91
2018-03-02T10:44:35.666Z,972.92
2018-03-02T10:45:35.659Z,972.84
2018-03-02T10:46:35.650Z,972.93
2018-03-02T10:47:35.643Z,972.86
2018-03-02T10:48:35.635Z,972.85
2018-03-02T10:49:35.628Z,972.86
2018-03-02T10:50:35.621Z,972.89
2018-03-02T10:51:35.612Z,972.88
2018-03-02T10:52:35.604Z,972.87
2018-03-02T10:53:35.594Z,972.82
2018-03-02T10:54:35.585Z,972.86
2018-03-02T10:55:35.579Z,972.83
2018-03-02T10:56:35.572Z,972.80
2018-03-02T10:57:35.565Z,972.86
2018-03-02T10:58:35.555Z,972.82
2018-03-02T10:59:35.579Z,972.82
2018-03-02T11:00:35.538Z,972.79
2018-03-02T11:01:35.528Z,972.77
2018-03-02T11:02:35.524Z,972.80
2018-03-02T11:03:35.514Z,972.78
2018-03-02T11:04:35.504Z,972.82
2018-03-02T11:05:35.513Z,972.80
2018-03-02T11:06:35.495Z,972.82
2018-03-02T11:07:35.482Z,972.82
2018-03-02T11:08:35.472Z,972.84
2018-03-02T11:09:35.466Z,972.80
2018-03-02T11:10:35.456Z,972.81
2018-03-02T11:11:35.449Z,972.79
2018-03-02T11:12:35.443Z,972.76
2018-03-02T11:13:35.432Z,972.68
2018-03-02T11:14:35.425Z,972.72
2018-03-02T11:15:35.419Z,972.70
2018-03-02T11:16:35.410Z,972.70
2018-03-02T11:17:35.400Z,972.71
2018-03-02T11:18:35.393Z,972.69
2018-03-02T11:19:35.387Z,972.69
2018-03-02T11:20:35.377Z,972.72
2018-03-02T11:21:35.368Z,972.77
2018-03-02T11:22:35.361Z,972.73
2018-03-02T11:23:35.351Z,972.73
2018-03-02T11:24:35.344Z,972.74
2018-03-02T11:25:35.336Z,972.75
2018-03-02T11:26:35.330Z,972.71
2018-03-02T11:27:35.321Z,972.72
2018-03-02T11:28:35.316Z,972.70
2018-03-02T11:29:35.303Z,972.66
2018-03-02T11:30:35.296Z,972.64
2018-03-02T11:31:35.288Z,972.65
2018-03-02T11:32:35.279Z,972.68
2018-03-02T11:33:35.285Z,972.69
2018-03-02T11:34:35.263Z,972.69
2018-03-02T11:35:35.259Z,972.67
2018-03-02T11:36:35.248Z,972.68
2018-03-02T11:37:35.241Z,972.71
2018-03-02T11:38:35.233Z,972.70
2018-03-02T11:39:35.224Z,972.65
2018-03-02T11:40:35.218Z,972.67
2018-03-02T11:41:35.208Z,972.71
2018-03-02T11:42:35.244Z,972.71
2018-03-02T11:43:35.192Z,972.69
2018-03-02T11:44:35.185Z,972.71
2018-03-02T11:45:35.175Z,972.69
2018-03-02T11:46:35.166Z,972.69
2018-03-02T11:47:35.168Z,972.66
2018-03-02T11:48:35.153Z,972.67
2018-03-02T11:49:35.143Z,972.68
2018-03-02T11:50:35.137Z,972.62
2018-03-02T11:51:35.128Z,972.65
2018-03-02T11:52:35.123Z,972.60
2018-03-02T11:53:35.113Z,972.56
2018-03-02T11:54:35.103Z,972.61
2018-03-02T11:55:35.096Z,972.58
2018-03-02T11:56:35.088Z,972.62
2018-03-02T11:57:35.080Z,972.57
2018-03-02T11:58:35.072Z,972.56
2018-03-02T11:59:35.067Z,972.59
2018-03-02T12:00:35.078Z,972.62
2018-03-02T12:01:35.046Z,972.60
2018-03-02T12:02:35.039Z,972.58
2018-03-02T12:03:35.032Z,972.58
2018-03-02T12:04:35.024Z,972.59
2018-03-02T12:05:35.015Z,972.60
2018-03-02T12:06:35.008Z,972.59
2018-03-02T12:07:34.999Z,972.60
2018-03-02T12:08:34.991Z,972.61
2018-03-02T12:09:34.984Z,972.60
2018-03-02T12:10:35.021Z,972.65
2018-03-02T12:11:34.969Z,972.67
2018-03-02T12:12:34.960Z,972.63
2018-03-02T12:13:34.949Z,972.63
2018-03-02T12:14:34.942Z,972.65
2018-03-02T12:15:34.935Z,972.68
2018-03-02T12:16:34.928Z,972.65
2018-03-02T12:17:34.919Z,972.67
2018-03-02T12:18:34.912Z,972.67
2018-03-02T12:19:34.904Z,972.65
2018-03-02T12:20:34.897Z,972.69
2018-03-02T12:21:34.887Z,972.73
2018-03-02T12:22:34.889Z,972.71
2018-03-02T12:23:34.871Z,972.68
2018-03-02T12:24:34.863Z,972.76
2018-03-02T12:25:34.854Z,972.76
2018-03-02T12:26:34.847Z,972.73
2018-03-02T12:27:34.837Z,972.76
2018-03-02T12:28:34.842Z,972.77